createdAt,value
2023-04-15T00:00:10.043Z,100262.13
2023-04-15T00:02:42.130Z,100241.31
2023-04-15T00:05:13.665Z,100276.28
2023-04-15T00:07:46.905Z,100249.16
2023-04-15T00:10:18.196Z,100256.91
2023-04-15T00:12:49.474Z,100256.94
2023-04-15T00:15:20.754Z,100261.38
2023-04-15T00:17:52.211Z,100247.41
2023-04-15T00:20:23.540Z,100268.44
2023-04-15T00:22:54.905Z,100243.00
2023-04-15T00:25:26.344Z,100257.00
2023-04-15T00:27:57.653Z,100249.97
2023-04-15T00:30:28.927Z,100245.66
2023-04-15T00:33:02.292Z,100227.28
2023-04-15T00:35:33.668Z,100248.34
2023-04-15T00:38:07.142Z,100229.03
2023-04-15T00:40:38.628Z,100240.44
2023-04-15T00:43:10.105Z,100237.84
2023-04-15T00:45:41.751Z,100234.41
2023-04-15T00:48:13.399Z,100225.91
2023-04-15T00:50:44.756Z,100241.78
2023-04-15T00:53:16.150Z,100245.41
2023-04-15T00:55:47.473Z,100244.66
2023-04-15T00:58:19.149Z,100214.03
2023-04-15T01:00:54.192Z,100230.72
2023-04-15T01:03:25.734Z,100229.88
2023-04-15T01:06:00.923Z,100198.50
2023-04-15T01:08:34.359Z,100238.84
2023-04-15T01:11:06.036Z,100230.97
2023-04-15T01:13:37.316Z,100232.81
2023-04-15T01:16:09.184Z,100234.59
2023-04-15T01:18:41.476Z,100227.66
2023-04-15T01:21:13.931Z,100230.38
2023-04-15T01:23:47.721Z,100224.31
2023-04-15T01:26:19.826Z,100225.16
2023-04-15T01:28:51.669Z,100221.69
2023-04-15T01:31:23.114Z,100201.69
2023-04-15T01:33:54.424Z,100221.72
2023-04-15T01:36:25.686Z,100206.00
2023-04-15T01:38:57.333Z,100209.44
2023-04-15T01:41:29.032Z,100207.72
2023-04-15T01:44:00.562Z,100206.09
2023-04-15T01:46:32.151Z,100211.28
2023-04-15T01:49:03.604Z,100205.97
2023-04-15T01:51:34.871Z,100202.50
2023-04-15T01:54:06.433Z,100214.72
2023-04-15T01:56:38.803Z,100199.00
2023-04-15T01:59:11.184Z,100193.66
2023-04-15T02:01:42.503Z,100200.69
2023-04-15T02:04:16.596Z,100177.16
2023-04-15T02:06:48.913Z,100190.28
2023-04-15T02:09:20.454Z,100206.88
2023-04-15T02:11:53.586Z,100196.34
2023-04-15T02:14:24.929Z,100204.28
2023-04-15T02:16:56.474Z,100189.47
2023-04-15T02:19:27.837Z,100187.66
2023-04-15T02:22:00.057Z,100190.25
2023-04-15T02:24:31.545Z,100195.47
2023-04-15T02:27:03.499Z,100202.53
2023-04-15T02:29:34.795Z,100200.78
2023-04-15T02:32:06.270Z,100199.88
2023-04-15T02:34:41.186Z,100181.56
2023-04-15T02:37:13.517Z,100191.19
2023-04-15T02:39:45.127Z,100212.19
2023-04-15T02:42:16.534Z,100213.06
2023-04-15T02:44:47.802Z,100199.00
2023-04-15T02:47:19.110Z,100195.47
2023-04-15T02:49:50.551Z,100181.50
2023-04-15T02:52:21.805Z,100196.38
2023-04-15T02:54:57.321Z,100192.88
2023-04-15T02:57:29.489Z,100199.94
2023-04-15T03:00:00.839Z,100208.72
2023-04-15T03:02:39.382Z,100202.56
2023-04-15T03:05:14.276Z,100201.66
2023-04-15T03:07:45.710Z,100199.94
2023-04-15T03:10:16.996Z,100192.00
2023-04-15T03:12:48.803Z,100187.66
2023-04-15T03:15:20.084Z,100202.56
2023-04-15T03:17:51.516Z,100193.72
2023-04-15T03:20:23.355Z,100190.19
2023-04-15T03:22:54.691Z,100186.78
2023-04-15T03:25:26.253Z,100192.00
2023-04-15T03:27:58.259Z,100182.38
2023-04-15T03:30:29.533Z,100177.97
2023-04-15T03:33:00.932Z,100196.28
2023-04-15T03:35:32.369Z,100176.16
2023-04-15T03:38:03.909Z,100171.81
2023-04-15T03:40:35.504Z,100188.38
2023-04-15T03:43:07.153Z,100191.88
2023-04-15T03:45:38.470Z,100188.31
2023-04-15T03:48:17.177Z,100187.41
2023-04-15T03:50:48.828Z,100186.53
2023-04-15T03:53:21.329Z,100194.47
2023-04-15T03:55:52.628Z,100184.78
2023-04-15T03:58:24.050Z,100188.28
2023-04-15T04:00:55.465Z,100196.22
2023-04-15T04:03:27.415Z,100165.59
2023-04-15T04:05:59.228Z,100190.97
2023-04-15T04:08:30.479Z,100195.38
2023-04-15T04:11:01.887Z,100190.09
2023-04-15T04:13:33.281Z,100187.44
2023-04-15T04:16:04.895Z,100183.00
2023-04-15T04:18:36.321Z,100197.09
2023-04-15T04:21:07.668Z,100197.06
2023-04-15T04:23:39.056Z,100189.25
2023-04-15T04:26:10.452Z,100201.47
2023-04-15T04:28:41.945Z,100215.53
2023-04-15T04:31:13.231Z,100196.25
2023-04-15T04:33:44.613Z,100191.88
2023-04-15T04:36:16.349Z,100207.56
2023-04-15T04:38:47.748Z,100190.97
2023-04-15T04:41:19.048Z,100186.59
2023-04-15T04:43:50.304Z,100210.25
2023-04-15T04:46:21.630Z,100209.38
2023-04-15T04:48:52.972Z,100212.88
2023-04-15T04:51:24.458Z,100209.31
2023-04-15T04:53:56.574Z,100188.34
2023-04-15T04:56:27.862Z,100204.03
2023-04-15T04:58:59.251Z,100205.78
2023-04-15T05:01:30.737Z,100200.50
2023-04-15T05:04:02.247Z,100207.56
2023-04-15T05:06:33.963Z,100218.09
2023-04-15T05:09:05.295Z,100213.72
2023-04-15T05:11:36.664Z,100212.78
2023-04-15T05:14:08.084Z,100199.72
2023-04-15T05:16:39.347Z,100203.13
2023-04-15T05:19:10.754Z,100202.25
2023-04-15T05:21:42.379Z,100211.88
2023-04-15T05:24:13.687Z,100200.56
2023-04-15T05:26:44.983Z,100216.28
2023-04-15T05:29:16.674Z,100204.81
2023-04-15T05:31:47.941Z,100211.00
2023-04-15T05:34:19.224Z,100192.59
2023-04-15T05:36:50.546Z,100214.44
2023-04-15T05:39:21.940Z,100217.03
2023-04-15T05:41:53.502Z,100214.44
2023-04-15T05:44:24.846Z,100213.50
2023-04-15T05:46:56.148Z,100214.34
2023-04-15T05:49:27.507Z,100217.00
2023-04-15T05:51:59.131Z,100214.31
2023-04-15T05:54:30.430Z,100201.19
2023-04-15T05:57:01.720Z,100202.13
2023-04-15T05:59:33.148Z,100210.75
2023-04-15T06:02:04.669Z,100217.78
2023-04-15T06:04:36.863Z,100195.06
2023-04-15T06:07:08.218Z,100225.66
2023-04-15T06:09:39.575Z,100224.75
2023-04-15T06:12:12.231Z,100217.72
2023-04-15T06:14:43.629Z,100212.34
2023-04-15T06:17:14.981Z,100223.75
2023-04-15T06:19:46.319Z,100227.31
2023-04-15T06:22:17.637Z,100224.78
2023-04-15T06:24:52.997Z,100235.25
2023-04-15T06:27:24.414Z,100237.00
2023-04-15T06:29:55.703Z,100220.38
2023-04-15T06:32:27.076Z,100244.00
2023-04-15T06:34:58.494Z,100240.44
2023-04-15T06:37:29.845Z,100225.59
2023-04-15T06:40:01.152Z,100231.75
2023-04-15T06:42:32.619Z,100245.63
2023-04-15T06:45:04.269Z,100212.41
2023-04-15T06:47:35.692Z,100250.00
2023-04-15T06:50:07.631Z,100246.47
2023-04-15T06:52:39.189Z,100245.56
2023-04-15T06:55:10.744Z,100250.81
2023-04-15T06:57:42.177Z,100252.50
2023-04-15T07:00:14.093Z,100204.41
2023-04-15T07:02:45.426Z,100245.41
2023-04-15T07:05:17.049Z,100224.44
2023-04-15T07:07:48.294Z,100257.69
2023-04-15T07:10:20.315Z,100263.78
2023-04-15T07:12:52.462Z,100262.00
2023-04-15T07:15:23.882Z,100236.66
2023-04-15T07:17:56.025Z,100254.94
2023-04-15T07:20:27.363Z,100263.66
2023-04-15T07:22:58.902Z,100260.91
2023-04-15T07:25:30.333Z,100276.75
2023-04-15T07:28:02.431Z,100256.53
2023-04-15T07:30:34.446Z,100262.47
2023-04-15T07:33:05.758Z,100266.78
2023-04-15T07:35:37.021Z,100267.63
2023-04-15T07:38:08.341Z,100274.69
2023-04-15T07:40:40.378Z,100283.50
2023-04-15T07:43:11.960Z,100261.63
2023-04-15T07:45:43.516Z,100272.84
2023-04-15T07:48:14.952Z,100285.09
2023-04-15T07:50:46.460Z,100286.81
2023-04-15T07:53:17.756Z,100292.88
2023-04-15T07:55:49.080Z,100282.34
2023-04-15T07:58:20.476Z,100292.84
2023-04-15T08:00:51.751Z,100296.34
2023-04-15T08:03:23.683Z,100298.97
2023-04-15T08:05:55.105Z,100288.50
2023-04-15T08:08:26.476Z,100286.69
2023-04-15T08:10:58.557Z,100291.94
2023-04-15T08:13:30.976Z,100299.78
2023-04-15T08:16:19.237Z,100298.81
2023-04-15T08:18:52.226Z,100304.91
2023-04-15T08:21:24.501Z,100308.44
2023-04-15T08:23:56.484Z,100306.69
2023-04-15T08:26:27.819Z,100311.97
2023-04-15T08:28:59.220Z,100291.81
2023-04-15T08:31:30.782Z,100310.25
2023-04-15T08:34:02.221Z,100304.91
2023-04-15T08:36:33.645Z,100296.16
2023-04-15T08:39:05.233Z,100305.75
2023-04-15T08:41:50.604Z,100316.16
2023-04-15T08:44:23.819Z,100312.59
2023-04-15T08:46:57.032Z,100317.78
2023-04-15T08:49:29.458Z,100313.22
2023-04-15T08:52:01.436Z,100327.06
2023-04-15T08:54:33.828Z,100311.97
2023-04-15T08:57:06.021Z,100323.34
2023-04-15T08:59:37.393Z,100326.06
2023-04-15T09:02:09.260Z,100325.22
2023-04-15T09:04:40.561Z,100326.00
2023-04-15T09:07:11.983Z,100338.28
2023-04-15T09:09:43.370Z,100318.28
2023-04-15T09:12:14.709Z,100334.84
2023-04-15T09:14:47.275Z,100316.50
2023-04-15T09:17:20.969Z,100337.41
2023-04-15T09:20:08.711Z,100342.44
2023-04-15T09:22:43.638Z,100350.28
2023-04-15T09:25:14.858Z,100352.72
2023-04-15T09:27:49.835Z,100356.16
2023-04-15T09:30:21.233Z,100350.84
2023-04-15T09:32:57.353Z,100348.03
2023-04-15T09:35:28.751Z,100351.50
2023-04-15T09:38:03.996Z,100346.09
2023-04-15T09:40:36.302Z,100350.38
2023-04-15T09:43:09.626Z,100360.06
2023-04-15T09:45:51.229Z,100354.88
2023-04-15T09:48:27.013Z,100355.75
2023-04-15T09:51:00.440Z,100358.41
2023-04-15T09:53:34.848Z,100366.22
2023-04-15T09:56:07.898Z,100358.13
2023-04-15T09:58:39.342Z,100369.38
2023-04-15T10:01:11.597Z,100355.38
2023-04-15T10:03:44.115Z,100362.06
2023-04-15T10:06:16.326Z,100348.66
2023-04-15T10:08:48.279Z,100368.44
2023-04-15T10:11:23.174Z,100367.13
2023-04-15T10:13:56.147Z,100366.91
2023-04-15T10:16:30.897Z,100360.69
2023-04-15T10:19:04.346Z,100355.56
2023-04-15T10:21:37.642Z,100359.00
2023-04-15T10:24:09.589Z,100382.44
2023-04-15T10:26:41.266Z,100380.63
2023-04-15T10:29:12.918Z,100391.31
2023-04-15T10:31:44.913Z,100387.16
2023-04-15T10:34:16.979Z,100396.94
2023-04-15T10:36:48.319Z,100397.03
2023-04-15T10:39:34.729Z,100389.09
2023-04-15T10:42:17.283Z,100386.13
2023-04-15T10:44:51.852Z,100378.56
2023-04-15T10:47:23.258Z,100387.59
2023-04-15T10:50:00.335Z,100392.41
2023-04-15T10:52:31.775Z,100376.28
2023-04-15T10:55:04.518Z,100394.50
2023-04-15T10:57:38.968Z,100389.09
2023-04-15T11:00:15.721Z,100398.72
2023-04-15T11:03:08.159Z,100407.50
2023-04-15T11:05:39.628Z,100410.06
2023-04-15T11:08:12.282Z,100399.19
2023-04-15T11:10:43.523Z,100414.53
2023-04-15T11:13:17.930Z,100400.31
2023-04-15T11:15:49.853Z,100416.59
2023-04-15T11:18:23.666Z,100416.38
2023-04-15T11:21:06.306Z,100418.50
2023-04-15T11:23:47.235Z,100418.00
2023-04-15T11:26:18.882Z,100416.16
2023-04-15T11:28:50.170Z,100432.56
2023-04-15T11:31:23.859Z,100426.06
2023-04-15T11:33:58.830Z,100431.19
2023-04-15T11:36:31.902Z,100410.28
2023-04-15T11:39:07.274Z,100436.66
2023-04-15T11:41:38.571Z,100435.03
2023-04-15T11:44:17.872Z,100415.56
2023-04-15T11:46:49.228Z,100444.50
2023-04-15T11:49:31.188Z,100438.66
2023-04-15T11:52:11.197Z,100438.53
2023-04-15T11:54:42.620Z,100438.09
2023-04-15T11:57:13.928Z,100454.97
2023-04-15T11:59:46.295Z,100450.00
2023-04-15T12:02:17.836Z,100459.25
2023-04-15T12:04:49.242Z,100460.91
2023-04-15T12:07:20.877Z,100465.97
2023-04-15T12:09:56.833Z,100459.28
2023-04-15T12:12:28.904Z,100440.63
2023-04-15T12:15:00.260Z,100454.31
2023-04-15T12:17:51.869Z,100454.00
2023-04-15T12:20:25.913Z,100461.03
2023-04-15T12:23:05.997Z,100444.53
2023-04-15T12:25:37.415Z,100474.25
2023-04-15T12:28:12.024Z,100463.22
2023-04-15T12:30:51.531Z,100453.03
2023-04-15T12:33:22.909Z,100474.31
2023-04-15T12:35:54.210Z,100466.19
2023-04-15T12:38:25.533Z,100481.91
2023-04-15T12:40:57.954Z,100481.47
2023-04-15T12:43:29.258Z,100484.72
2023-04-15T12:46:00.607Z,100481.13
2023-04-15T12:48:33.172Z,100495.25
2023-04-15T12:51:05.739Z,100495.69
2023-04-15T12:53:37.251Z,100488.66
2023-04-15T12:56:08.700Z,100491.69
2023-04-15T12:58:40.059Z,100493.72
2023-04-15T13:01:11.599Z,100494.53
2023-04-15T13:03:43.325Z,100508.34
2023-04-15T13:06:14.745Z,100501.47
2023-04-15T13:08:57.407Z,100500.03
2023-04-15T13:11:36.606Z,100498.59
2023-04-15T13:14:09.280Z,100487.47
2023-04-15T13:16:41.284Z,100509.25
2023-04-15T13:19:12.609Z,100496.59
2023-04-15T13:21:44.053Z,100511.53
2023-04-15T13:24:15.562Z,100515.25
2023-04-15T13:26:49.690Z,100513.75
2023-04-15T13:29:22.250Z,100517.56
2023-04-15T13:31:53.688Z,100518.38
2023-04-15T13:34:25.292Z,100525.00
2023-04-15T13:36:56.633Z,100526.16
2023-04-15T13:39:27.914Z,100523.06
2023-04-15T13:41:59.509Z,100528.13
2023-04-15T13:44:31.088Z,100525.22
2023-04-15T13:47:02.467Z,100511.63
2023-04-15T13:49:33.779Z,100513.31
2023-04-15T13:52:05.326Z,100524.00
2023-04-15T13:54:37.684Z,100531.25
2023-04-15T13:57:09.493Z,100533.13
2023-04-15T13:59:41.042Z,100545.88
2023-04-15T14:02:12.437Z,100541.59
2023-04-15T14:04:43.826Z,100553.91
2023-04-15T14:07:15.265Z,100563.31
2023-04-15T14:09:48.109Z,100554.19
2023-04-15T14:12:19.502Z,100554.19
2023-04-15T14:14:50.812Z,100561.47
2023-04-15T14:17:22.357Z,100565.16
2023-04-15T14:19:53.721Z,100553.09
2023-04-15T14:22:25.062Z,100564.59
2023-04-15T14:24:56.585Z,100563.97
2023-04-15T14:27:28.537Z,100582.34
2023-04-15T14:29:59.960Z,100579.78
2023-04-15T14:32:31.393Z,100585.38
2023-04-15T14:35:04.222Z,100579.28
2023-04-15T14:37:35.904Z,100585.53
2023-04-15T14:40:08.066Z,100566.19
2023-04-15T14:42:39.347Z,100596.69
2023-04-15T14:45:10.893Z,100590.25
2023-04-15T14:47:42.264Z,100588.56
2023-04-15T14:50:13.573Z,100601.63
2023-04-15T14:52:45.364Z,100604.09
2023-04-15T14:55:16.901Z,100606.75
2023-04-15T14:57:48.207Z,100597.22
2023-04-15T15:00:19.596Z,100616.56
2023-04-15T15:02:51.032Z,100608.66
2023-04-15T15:05:22.672Z,100612.16
2023-04-15T15:07:54.057Z,100610.31
2023-04-15T15:10:43.958Z,100619.13
2023-04-15T15:13:17.777Z,100612.09
2023-04-15T15:15:49.510Z,100602.47
2023-04-15T15:18:21.500Z,100603.16
2023-04-15T15:20:52.854Z,100624.03
2023-04-15T15:23:24.322Z,100622.22
2023-04-15T15:25:56.015Z,100610.50
2023-04-15T15:28:27.323Z,100610.50
2023-04-15T15:30:58.736Z,100618.50
2023-04-15T15:33:30.387Z,100613.13
2023-04-15T15:36:02.195Z,100605.59
2023-04-15T15:38:33.569Z,100648.25
2023-04-15T15:41:05.205Z,100623.00
2023-04-15T15:43:36.861Z,100637.25
2023-04-15T15:46:08.247Z,100645.31
2023-04-15T15:48:39.607Z,100638.31
2023-04-15T15:51:11.002Z,100650.88
2023-04-15T15:53:42.466Z,100642.03
2023-04-15T15:56:14.064Z,100641.34
2023-04-15T15:58:45.465Z,100646.84
2023-04-15T16:01:16.845Z,100661.66
2023-04-15T16:03:48.378Z,100645.22
2023-04-15T16:06:19.708Z,100656.66
2023-04-15T16:08:50.974Z,100672.53
2023-04-15T16:11:23.152Z,100670.84
2023-04-15T16:13:54.636Z,100680.53
2023-04-15T16:16:26.035Z,100689.47
2023-04-15T16:18:57.681Z,100670.22
2023-04-15T16:21:29.001Z,100690.56
2023-04-15T16:24:00.370Z,100685.59
2023-04-15T16:26:31.670Z,100696.59
2023-04-15T16:29:03.923Z,100691.34
2023-04-15T16:31:37.262Z,100701.16
2023-04-15T16:34:09.007Z,100691.69
2023-04-15T16:36:40.553Z,100704.25
2023-04-15T16:39:11.989Z,100709.69
2023-04-15T16:41:43.327Z,100717.84
2023-04-15T16:44:14.803Z,100719.78
2023-04-15T16:46:46.237Z,100698.72
2023-04-15T16:49:17.549Z,100724.44
2023-04-15T16:51:48.838Z,100716.63
2023-04-15T16:54:20.164Z,100703.75
2023-04-15T16:56:51.417Z,100731.16
2023-04-15T16:59:23.089Z,100728.69
2023-04-15T17:01:55.504Z,100725.28
2023-04-15T17:04:28.348Z,100701.16
2023-04-15T17:06:59.746Z,100741.84
2023-04-15T17:09:31.073Z,100744.81
2023-04-15T17:12:03.905Z,100730.22
2023-04-15T17:14:35.411Z,100743.41
2023-04-15T17:17:06.773Z,100756.78
2023-04-15T17:19:38.397Z,100756.00
2023-04-15T17:22:09.663Z,100759.72
2023-04-15T17:24:40.929Z,100768.75
2023-04-15T17:27:12.243Z,100761.75
2023-04-15T17:29:43.514Z,100767.19
2023-04-15T17:32:14.778Z,100755.91
2023-04-15T17:34:50.713Z,100746.47
2023-04-15T17:37:22.699Z,100757.19
2023-04-15T17:39:54.033Z,100778.59
2023-04-15T17:42:26.251Z,100777.97
2023-04-15T17:44:57.656Z,100784.34
2023-04-15T17:47:28.994Z,100774.06
2023-04-15T17:50:00.340Z,100752.28
2023-04-15T17:52:31.597Z,100782.97
2023-04-15T17:55:03.048Z,100794.59
2023-04-15T17:57:34.345Z,100742.13
2023-04-15T18:00:06.891Z,100796.72
2023-04-15T18:02:38.413Z,100802.13
2023-04-15T18:05:10.379Z,100809.28
2023-04-15T18:07:41.768Z,100800.50
2023-04-15T18:10:13.093Z,100800.66
2023-04-15T18:12:44.360Z,100796.59
2023-04-15T18:15:15.846Z,100812.53
2023-04-15T18:17:48.000Z,100826.88
2023-04-15T18:20:19.530Z,100815.66
2023-04-15T18:22:51.340Z,100822.88
2023-04-15T18:25:22.668Z,100834.44
2023-04-15T18:27:54.961Z,100831.91
2023-04-15T18:30:26.570Z,100825.03
2023-04-15T18:32:57.894Z,100847.94
2023-04-15T18:35:32.229Z,100840.25
2023-04-15T18:38:03.546Z,100846.28
2023-04-15T18:40:35.438Z,100834.97
2023-04-15T18:43:06.821Z,100856.91
2023-04-15T18:45:38.328Z,100863.03
2023-04-15T18:48:09.797Z,100848.16
2023-04-15T18:50:42.607Z,100861.25
2023-04-15T18:53:14.390Z,100874.50
2023-04-15T18:55:46.540Z,100875.34
2023-04-15T18:58:17.929Z,100882.53
2023-04-15T19:00:49.230Z,100889.47
2023-04-15T19:03:20.704Z,100871.00
2023-04-15T19:05:52.114Z,100864.88
2023-04-15T19:08:23.411Z,100890.28
2023-04-15T19:10:54.725Z,100886.13
2023-04-15T19:13:26.242Z,100891.44
2023-04-15T19:15:57.590Z,100912.59
2023-04-15T19:18:28.995Z,100897.66
2023-04-15T19:21:00.534Z,100922.38
2023-04-15T19:23:32.086Z,100921.50
2023-04-15T19:26:03.497Z,100924.19
2023-04-15T19:28:34.909Z,100934.84
2023-04-15T19:31:06.618Z,100930.56
2023-04-15T19:33:38.218Z,100936.72
2023-04-15T19:36:09.977Z,100942.97
2023-04-15T19:38:41.338Z,100936.88
2023-04-15T19:41:12.994Z,100954.50
2023-04-15T19:43:44.362Z,100933.41
2023-04-15T19:46:15.700Z,100939.63
2023-04-15T19:48:47.148Z,100959.03
2023-04-15T19:51:18.769Z,100956.47
2023-04-15T19:53:50.868Z,100959.13
2023-04-15T19:56:23.811Z,100963.59
2023-04-15T19:58:55.229Z,100961.00
2023-04-15T20:01:27.136Z,100963.72
2023-04-15T20:03:58.707Z,100969.94
2023-04-15T20:06:30.254Z,100969.13
2023-04-15T20:09:01.980Z,100972.66
2023-04-15T20:12:44.881Z,100955.06
2023-04-15T20:14:25.600Z,100957.66
2023-04-15T20:16:56.912Z,100964.59
2023-04-15T20:19:28.198Z,100983.13
2023-04-15T20:21:59.572Z,100985.78
2023-04-15T20:24:30.906Z,100998.22
2023-04-15T20:27:03.797Z,101004.50
2023-04-15T20:29:35.962Z,101000.22
2023-04-15T20:32:11.121Z,100980.09
2023-04-15T20:34:42.532Z,101010.06
2023-04-15T20:37:13.842Z,101003.88
2023-04-15T20:39:45.129Z,101006.59
2023-04-15T20:42:17.287Z,101017.19
2023-04-15T20:44:48.647Z,101001.34
2023-04-15T20:47:20.392Z,101004.91
2023-04-15T20:49:51.945Z,101011.16
2023-04-15T20:52:23.390Z,101003.31
2023-04-15T20:54:54.694Z,101002.50
2023-04-15T20:57:26.119Z,100999.97
2023-04-15T20:59:57.582Z,101013.13
2023-04-15T21:02:29.199Z,101008.72
2023-04-15T21:05:00.739Z,100998.28
2023-04-15T21:07:32.037Z,101021.16
2023-04-15T21:10:03.466Z,100991.31
2023-04-15T21:12:34.852Z,101030.06
2023-04-15T21:15:07.169Z,101023.00
2023-04-15T21:17:39.057Z,101021.31
2023-04-15T21:20:11.122Z,101020.44
2023-04-15T21:22:42.489Z,101028.44
2023-04-15T21:25:14.126Z,101026.72
2023-04-15T21:27:45.793Z,101035.59
2023-04-15T21:30:17.510Z,101040.09
2023-04-15T21:32:49.222Z,101041.03
2023-04-15T21:35:21.564Z,101034.06
2023-04-15T21:37:54.463Z,101040.22
2023-04-15T21:40:26.595Z,101024.44
2023-04-15T21:43:02.905Z,101042.97
2023-04-15T21:45:35.449Z,101050.06
2023-04-15T21:48:08.888Z,101035.19
2023-04-15T21:50:40.839Z,101059.00
2023-04-15T21:53:14.739Z,101056.34
2023-04-15T21:55:46.362Z,101068.75
2023-04-15T21:58:18.118Z,101072.31
2023-04-15T22:00:49.831Z,101067.94
2023-04-15T22:03:21.557Z,101072.38
2023-04-15T22:05:52.938Z,101080.34
2023-04-15T22:08:24.307Z,101055.75
2023-04-15T22:10:55.638Z,101079.59
2023-04-15T22:13:26.900Z,101059.38
2023-04-15T22:15:58.322Z,101078.81
2023-04-15T22:18:29.666Z,101085.03
2023-04-15T22:21:01.511Z,101083.31
2023-04-15T22:23:32.925Z,101062.22
2023-04-15T22:26:05.372Z,101086.88
2023-04-15T22:28:36.676Z,101089.56
2023-04-15T22:31:08.118Z,101086.94
2023-04-15T22:33:39.480Z,101077.28
2023-04-15T22:36:11.112Z,101084.34
2023-04-15T22:38:42.492Z,101093.19
2023-04-15T22:41:13.829Z,101089.66
2023-04-15T22:43:46.344Z,101089.69
2023-04-15T22:46:17.648Z,101098.53
2023-04-15T22:48:49.014Z,101096.75
2023-04-15T22:51:24.187Z,101096.78
2023-04-15T22:53:56.050Z,101078.28
2023-04-15T22:56:27.324Z,101099.44
2023-04-15T22:58:58.616Z,101099.44
2023-04-15T23:01:31.845Z,101102.09
2023-04-15T23:04:04.668Z,101111.78
2023-04-15T23:06:39.830Z,101106.50
2023-04-15T23:09:11.359Z,101092.44
2023-04-15T23:11:42.817Z,101119.72
2023-04-15T23:14:14.102Z,101120.59
2023-04-15T23:16:45.613Z,101125.00
2023-04-15T23:19:16.948Z,101127.66
2023-04-15T23:21:48.435Z,101104.72
2023-04-15T23:24:19.730Z,101138.19
2023-04-15T23:26:52.858Z,101137.31
2023-04-15T23:29:24.222Z,101141.72
2023-04-15T23:31:56.792Z,101141.72
2023-04-15T23:34:28.250Z,101147.00
2023-04-15T23:36:59.519Z,101147.00
2023-04-15T23:39:31.047Z,101154.94
2023-04-15T23:42:03.260Z,101138.22
2023-04-15T23:44:34.566Z,101154.09
2023-04-15T23:47:05.974Z,101140.88
2023-04-15T23:49:37.275Z,101149.66
2023-04-15T23:52:08.620Z,101151.44
2023-04-15T23:54:39.887Z,101147.00
2023-04-15T23:57:11.213Z,101145.25
2023-04-15T23:59:42.607Z,101156.69
